Home > Products > Valid Products > TAF

000
FTUS42 TJSJ 291849 AAA
TAFJBQ
TAF AMD
TJBQ 291849Z 2919/3018 12006KT P6SM VCSH SCT025 SCT060
      TEMPO 2919/2923 VRB12G20KT 5SM TSRA SCT025CB BKN040 BKN070
     FM292300 VRB04KT P6SM VCSH SCT025 BKN070
     FM301700 06012G18KT P6SM VCTS SCT022CB BKN040 BKN090=



000
FTUS42 TJSJ 291849 AAA
TAFJBQ
TAF AMD
TJBQ 291849Z 2919/3018 12006KT P6SM VCSH SCT025 SCT060
      TEMPO 2919/2923 VRB12G20KT 5SM TSRA SCT025CB BKN040 BKN070
     FM292300 VRB04KT P6SM VCSH SCT025 BKN070
     FM301700 06012G18KT P6SM VCTS SCT022CB BKN040 BKN090=



000
FTUS42 TJSJ 291725
TAFJBQ
TAF
TJBQ 291725Z 2918/3018 12006KT P6SM VCSH SCT025 SCT060
     FM292300 VRB04KT P6SM VCSH SCT025 BKN070
     FM301700 06012G18KT P6SM VCTS SCT022CB BKN040 BKN090=



000
FTUS42 TJSJ 291725
TAFKPK
TAF
TKPK 291725Z 2918/3018 10011KT P6SM FEW022
     FM292300 09008KT P6SM SCT020 SCT022 SCT100
     FM301330 09015KT P6SM VCSH FEW020 SCT022 SCT050=



000
FTUS42 TJSJ 291725
TAFJSJ
TAF
TJSJ 291725Z 2918/3018 11010KT P6SM VCTS SCT022CB SCT050 BKN100
      TEMPO 2918/2920 VRB12G20KT 5SM TSRA SCT025CB BKN040 BKN070
     FM292200 12010KT P6SM VCTS SCT025CB BKN050 BKN070
     FM301330 09008KT P6SM VCSH SCT025 BKN100=



000
FTUS42 TJSJ 291725
TAFJMZ
TAF
TJMZ 291725Z 2918/3018 06011KT P6SM VCSH SCT030 BKN060
      TEMPO 2918/2920 SHRA SCT025 BKN040 BKN070
     FM292200 06006KT P6SM SCT025 SCT100
     FM301330 07006KT P6SM SCT030 SCT100
      AMD NOT SKED=



000
FTUS42 TJSJ 291725
TAFNCM
TAF
TNCM 291725Z 2918/3018 13010KT P6SM SCT020 SCT040
     FM292300 11008KT P6SM FEW020 SCT100
     FM301330 13012KT P6SM FEW020 SCT050=



000
FTUS42 TJSJ 291725
TAFJPS
TAF
TJPS 291725Z 2918/3018 VRB05KT P6SM VCTS SCT025CB SCT050
      TEMPO 2918/2920 TSRA SCT025CB BKN040 BKN060
     FM292330 10007KT P6SM FEW030 SCT060
     FM301500 15010KT P6SM VCSH SCT025 BKN060
      AMD NOT SKED TIL 300300=



000
FTUS42 TJSJ 291725
TAFISX
TAF
TISX 291725Z 2918/3018 13007KT P6SM VCSH FEW025 SCT050
     FM292300 11006KT P6SM FEW025 SCT100
     FM301330 13012KT P6SM VCSH SCT025 SCT035 BKN050=



000
FTUS42 TJSJ 291725
TAFIST
TAF
TIST 291725Z 2918/3018 11008KT P6SM VCSH SCT020 BKN050
     FM292300 11007KT P6SM FEW025 SCT100
     FM301330 13010KT P6SM VCSH SCT025 SCT040 BKN050=



000
FTUS42 TJSJ 291725
TAFJBQ
TAF
TJBQ 291725Z 2918/3018 12006KT P6SM VCSH SCT025 SCT060
     FM292300 VRB04KT P6SM VCSH SCT025 BKN070
     FM301700 06012G18KT P6SM VCTS SCT022CB BKN040 BKN090=



000
FTUS42 TJSJ 291429 AAB
TAFJSJ
TAF AMD
TJSJ 291429Z 2914/3012 10003KT P6SM VCTS SCT022CB SCT050 BKN100
      TEMPO 2914/2916 VRB12G20KT 5SM SHRA BKN025
     FM291700 09012KT P6SM VCTS SCT022CB BKN040 BKN090
     FM292200 12007KT P6SM SCT030 SCT100=



000
FTUS42 TJSJ 291407 AAA
TAFJBQ
TAF AMD
TJBQ 291407Z 2914/3012 05012G17KT P6SM SCT025 SCT050
      TEMPO 2914/2916 5SM SHRA SCT020 BKN030
     FM291630 05012KT P6SM VCTS FEW025CB BKN050
     FM291800 06012G18KT P6SM VCTS SCT022CB BKN040 BKN090
     FM292300 VRB04KT P6SM SCT025=



000
FTUS42 TJSJ 291245 CCA
TAFJPS
TAF COR
TJPS 291245Z 2913/3012 VRB05KT P6SM VCSH SCT025 SCT050
      TEMPO 2913/2915 5SM SHRA OVC022
     FM291500 15010KT P6SM VCSH SCT025 BKN060
     FM292330 10007KT P6SM FEW030 SCT060
      AMD NOT SKED TIL 300300=



000
FTUS42 TJSJ 291245 CCA
TAFJPS
TAF COR
TJPS 291245Z 2913/3012 VRB05KT P6SM VCSH SCT025 SCT050
      TEMPO 2913/2915 5SM SHRA OVC022
     FM291500 15010KT P6SM VCSH SCT025 BKN060
     FM292330 10007KT P6SM FEW030 SCT060
      AMD NOT SKED TIL 300300=



000
FTUS42 TJSJ 291242 AAA
TAFJPS
TAF AMD
TJPS 291242Z 2913/3012 VRB05KT P6SM VCSH SCT025 SCT050
      TEMPO 2913/2915 5SM SHRA SCT022 BKN040
     FM291500 15010KT P6SM VCSH SCT025 BKN060
     FM292330 10007KT P6SM FEW030 SCT060
      AMD NOT SKED TIL 300300=



000
FTUS42 TJSJ 291242 AAA
TAFJPS
TAF AMD
TJPS 291242Z 2913/3012 VRB05KT P6SM VCSH SCT025 SCT050
      TEMPO 2913/2915 5SM SHRA SCT022 BKN040
     FM291500 15010KT P6SM VCSH SCT025 BKN060
     FM292330 10007KT P6SM FEW030 SCT060
      AMD NOT SKED TIL 300300=



000
FTUS42 TJSJ 291120
TAFJMZ
TAF
TJMZ 291120Z 2912/3012 VRB04KT P6SM FEW025 SCT050
     FM291330 07006KT P6SM SCT030 SCT100
     FM291700 22012KT P6SM VCTS SCT022CB BKN040 BKN090
     FM292200 06006KT P6SM SCT025 SCT100
      AMD NOT SKED=



000
FTUS42 TJSJ 291120
TAFIST
TAF
TIST 291120Z 2912/3012 10006KT P6SM VCSH SCT020 BKN030
     FM291330 13010KT P6SM VCSH SCT025 SCT040 BKN050
     FM292300 11007KT P6SM FEW025 SCT100=



000
FTUS42 TJSJ 291120
TAFJSJ
TAF
TJSJ 291120Z 2912/3012 VRB04KT P6SM VCSH FEW035 BKN060
     FM291330 09008KT P6SM VCSH SCT025 BKN100
     FM291700 09012KT P6SM VCTS SCT022CB BKN040 BKN090
     FM292200 12007KT P6SM SCT030 SCT100=



000
FTUS42 TJSJ 291120
TAFJBQ
TAF
TJBQ 291120Z 2912/3012 VRB03KT P6SM FEW025 SCT090
     FM291330 05012KT P6SM FEW030 BKN100
     FM291700 06012G18KT P6SM VCTS SCT022CB BKN040 BKN090
     FM292300 VRB04KT P6SM SCT025=



000
FTUS42 TJSJ 291120
TAFISX
TAF
TISX 291120Z 2912/3012 11008KT P6SM VCSH FEW025 SCT050
     FM291330 13012KT P6SM VCSH SCT025 SCT035 BKN050
     FM292300 11006KT P6SM FEW025 SCT100=



000
FTUS42 TJSJ 291120
TAFKPK
TAF
TKPK 291120Z 2912/3012 10006KT P6SM FEW018
     FM291330 09015KT P6SM VCSH FEW020 SCT022 SCT050
     FM292300 09008KT P6SM SCT020 SCT022 SCT100=



000
FTUS42 TJSJ 291120
TAFNCM
TAF
TNCM 291120Z 2912/3012 11006KT P6SM VCSH SCT018 SCT040
     FM291330 13012KT P6SM FEW020 SCT050
     FM292300 11008KT P6SM FEW020 SCT100=



000
FTUS42 TJSJ 291120
TAFJSJ
TAF
TJSJ 291120Z 2912/3012 VRB04KT P6SM VCSH FEW035 BKN060
     FM291330 09008KT P6SM VCSH SCT025 BKN100
     FM291700 09012KT P6SM VCTS SCT022CB BKN040 BKN090
     FM292200 12007KT P6SM SCT030 SCT100=



000
FTUS42 TJSJ 291120
TAFISX
TAF
TISX 291120Z 2912/3012 11008KT P6SM VCSH FEW025 SCT050
     FM291330 13012KT P6SM VCSH SCT025 SCT035 BKN050
     FM292300 11006KT P6SM FEW025 SCT100=



000
FTUS42 TJSJ 291120
TAFJBQ
TAF
TJBQ 291120Z 2912/3012 VRB03KT P6SM FEW025 SCT090
     FM291330 05012KT P6SM FEW030 BKN100
     FM291700 06012G18KT P6SM VCTS SCT022CB BKN040 BKN090
     FM292300 VRB04KT P6SM SCT025=



000
FTUS42 TJSJ 291120
TAFJPS
TAF
TJPS 291120Z 2912/3012 VRB04KT P6SM VCSH SCT025 SCT050
     FM291330 15010KT P6SM VCSH SCT025 BKN060
     FM292330 10007KT P6SM FEW030 SCT060
      AMD NOT SKED TIL 300300=



000
FTUS42 TJSJ 291120
TAFKPK
TAF
TKPK 291120Z 2912/3012 10006KT P6SM FEW018
     FM291330 09015KT P6SM VCSH FEW020 SCT022 SCT050
     FM292300 09008KT P6SM SCT020 SCT022 SCT100=



000
FTUS42 TJSJ 291120
TAFNCM
TAF
TNCM 291120Z 2912/3012 11006KT P6SM VCSH SCT018 SCT040
     FM291330 13012KT P6SM FEW020 SCT050
     FM292300 11008KT P6SM FEW020 SCT100=



000
FTUS42 TJSJ 291120
TAFJMZ
TAF
TJMZ 291120Z 2912/3012 VRB04KT P6SM FEW025 SCT050
     FM291330 07006KT P6SM SCT030 SCT100
     FM291700 22012KT P6SM VCTS SCT022CB BKN040 BKN090
     FM292200 06006KT P6SM SCT025 SCT100
      AMD NOT SKED=



000
FTUS42 TJSJ 291120
TAFJPS
TAF
TJPS 291120Z 2912/3012 VRB04KT P6SM VCSH SCT025 SCT050
     FM291330 15010KT P6SM VCSH SCT025 BKN060
     FM292330 10007KT P6SM FEW030 SCT060
      AMD NOT SKED TIL 300300=



000
FTUS42 TJSJ 290550
TAFKPK
TAF
TKPK 290550Z 2906/3006 09008KT P6SM VCSH SCT018 SCT020
     FM291330 09015KT P6SM VCSH FEW020 SCT022 SCT050
     FM292300 09008KT P6SM SCT020 SCT022 SCT100
      AMD NOT SKED TIL 291100=



000
FTUS42 TJSJ 290550
TAFNCM
TAF
TNCM 290550Z 2906/3006 12006KT P6SM VCSH SCT018 SCT020 SCT022
     FM291330 13012KT P6SM FEW020 SCT050
     FM292300 11008KT P6SM FEW020 SCT100=



000
FTUS42 TJSJ 290548
TAFJPS
TAF
TJPS 290548Z 2906/3006 19010KT P6SM -RA VCTS SCT020CB SCT040 SCT060
      TEMPO 2906/2907 2SM TSRA BKN020CB
     FM291330 15010KT P6SM VCSH SCT025 BKN060
     FM292330 10007KT P6SM FEW030 SCT060
      AMD NOT SKED 2912/3003=



000
FTUS42 TJSJ 290548
TAFISX
TAF
TISX 290548Z 2906/3006 VRB05KT P6SM -RA FEW015 FEW025 SCT090
     FM291330 13012KT P6SM VCSH SCT025 SCT035 BKN050
     FM292300 11006KT P6SM FEW025 SCT100=



000
FTUS42 TJSJ 290548
TAFJBQ
TAF
TJBQ 290548Z 2906/3006 VRB03KT P6SM FEW025 SCT090
     FM291330 05012KT P6SM FEW030 BKN100
     FM291700 06012G18KT P6SM VCTS SCT022CB BKN040 BKN090
     FM292300 VRB04KT P6SM SCT025
      AMD NOT SKED TIL 291100=



000
FTUS42 TJSJ 290548
TAFJMZ
TAF
TJMZ 290548Z 2906/3006 00000KT P6SM -RA FEW025 SCT050
     FM291330 07006KT P6SM SCT030 SCT100
     FM291700 22012KT P6SM VCTS SCT022CB BKN040 BKN090
     FM292200 06006KT P6SM SCT025 SCT100
      AMD NOT SKED=



000
FTUS42 TJSJ 290548
TAFISX
TAF
TISX 290548Z 2906/3006 VRB05KT P6SM -RA FEW015 FEW025 SCT090
     FM291330 13012KT P6SM VCSH SCT025 SCT035 BKN050
     FM292300 11006KT P6SM FEW025 SCT100=



000
FTUS42 TJSJ 290548
TAFIST
TAF
TIST 290548Z 2906/3006 09004KT P6SM -SHRA FEW016 FEW025 SCT090
     FM291330 13010KT P6SM VCSH SCT025 SCT040 BKN050
     FM292300 11007KT P6SM FEW025 SCT100=



000
FTUS42 TJSJ 290548
TAFJSJ
TAF
TJSJ 290548Z 2906/3006 VRB03KT P6SM VCSH FEW035 SCT100
     FM291330 09008KT P6SM VCSH SCT025 BKN100
     FM291700 09012KT P6SM VCTS SCT022CB BKN040 BKN090
     FM292200 12007KT P6SM SCT030 SCT100=



000
FTUS42 TJSJ 290548
TAFJPS
TAF
TJPS 290548Z 2906/3006 19010KT P6SM -RA VCTS SCT020CB SCT040 SCT060
      TEMPO 2906/2907 2SM TSRA BKN020CB
     FM291330 15010KT P6SM VCSH SCT025 BKN060
     FM292330 10007KT P6SM FEW030 SCT060
      AMD NOT SKED 2912/3003=



000
FTUS42 TJSJ 290548
TAFJBQ
TAF
TJBQ 290548Z 2906/3006 VRB03KT P6SM FEW025 SCT090
     FM291330 05012KT P6SM FEW030 BKN100
     FM291700 06012G18KT P6SM VCTS SCT022CB BKN040 BKN090
     FM292300 VRB04KT P6SM SCT025
      AMD NOT SKED TIL 291100=



000
FTUS42 TJSJ 290548
TAFJSJ
TAF
TJSJ 290548Z 2906/3006 VRB03KT P6SM VCSH FEW035 SCT100
     FM291330 09008KT P6SM VCSH SCT025 BKN100
     FM291700 09012KT P6SM VCTS SCT022CB BKN040 BKN090
     FM292200 12007KT P6SM SCT030 SCT100=



000
FTUS42 TJSJ 290548
TAFIST
TAF
TIST 290548Z 2906/3006 09004KT P6SM -SHRA FEW016 FEW025 SCT090
     FM291330 13010KT P6SM VCSH SCT025 SCT040 BKN050
     FM292300 11007KT P6SM FEW025 SCT100=



000
FTUS42 TJSJ 290548
TAFJMZ
TAF
TJMZ 290548Z 2906/3006 00000KT P6SM -RA FEW025 SCT050
     FM291330 07006KT P6SM SCT030 SCT100
     FM291700 22012KT P6SM VCTS SCT022CB BKN040 BKN090
     FM292200 06006KT P6SM SCT025 SCT100
      AMD NOT SKED=



000
FTUS42 TJSJ 290504 AAA
TAFJPS
TAF AMD
TJPS 290504Z 2905/2924 07005KT P6SM BKN090
      TEMPO 2905/2906 VRB10G20KT 2SM TSRA BKN025CB
     FM291330 15010KT P6SM FEW025 BKN060
     FM292330 10007KT P6SM FEW030 SCT060=



000
FTUS42 TJSJ 290504 AAA
TAFJPS
TAF AMD
TJPS 290504Z 2905/2924 07005KT P6SM BKN090
      TEMPO 2905/2906 VRB10G20KT 2SM TSRA BKN025CB
     FM291330 15010KT P6SM FEW025 BKN060
     FM292330 10007KT P6SM FEW030 SCT060=



000
FTUS42 TJSJ 282344
TAFKPK
TAF
TKPK 282344Z 2900/2924 09009KT P6SM FEW017
     FM291330 09015KT P6SM FEW020 SCT050
     FM292300 09008KT P6SM FEW020 SCT100
      AMD NOT SKED 2902/2911=



000
FTUS42 TJSJ 282344
TAFJSJ
TAF
TJSJ 282344Z 2900/2924 14006KT P6SM SCT045 BKN100
     FM291330 09010KT P6SM SCT025 BKN100
     FM291700 VRB12KT P6SM VCTS SCT022CB BKN040 BKN090
     FM292200 11007KT P6SM SCT030 SCT100=



000
FTUS42 TJSJ 282344
TAFJSJ
TAF
TJSJ 282344Z 2900/2924 14006KT P6SM SCT045 BKN100
     FM291330 09010KT P6SM SCT025 BKN100
     FM291700 VRB12KT P6SM VCTS SCT022CB BKN040 BKN090
     FM292200 11007KT P6SM SCT030 SCT100=



000
FTUS42 TJSJ 282344
TAFJPS
TAF
TJPS 282344Z 2900/2924 07005KT P6SM BKN090
     FM291330 15010KT P6SM FEW025 BKN060
     FM292330 10007KT P6SM FEW030 SCT060
      AMD NOT SKED TIL 290300=



000
FTUS42 TJSJ 282344
TAFJBQ
TAF
TJBQ 282344Z 2900/2924 VRB03KT P6SM SCT030 BKN100
     FM291330 05012KT P6SM FEW030 BKN100
     FM291700 VRB12G18KT P6SM VCTS SCT022CB BKN040 BKN090
     FM292300 VRB04KT P6SM SCT025
      AMD NOT SKED 2902/2911=



000
FTUS42 TJSJ 282344
TAFJBQ
TAF
TJBQ 282344Z 2900/2924 VRB03KT P6SM SCT030 BKN100
     FM291330 05012KT P6SM FEW030 BKN100
     FM291700 VRB12G18KT P6SM VCTS SCT022CB BKN040 BKN090
     FM292300 VRB04KT P6SM SCT025
      AMD NOT SKED 2902/2911=



000
FTUS42 TJSJ 282344
TAFIST
TAF
TIST 282344Z 2900/2924 12009KT P6SM SCT100
     FM291330 13010KT P6SM SCT025 BKN050
     FM292300 09008KT P6SM FEW025 SCT100=



000
FTUS42 TJSJ 282344
TAFKPK
TAF
TKPK 282344Z 2900/2924 09009KT P6SM FEW017
     FM291330 09015KT P6SM FEW020 SCT050
     FM292300 09008KT P6SM FEW020 SCT100
      AMD NOT SKED 2902/2911=



000
FTUS42 TJSJ 282344
TAFJMZ
TAF
TJMZ 282344Z 2900/2924 00000KT P6SM BKN060
     FM291330 VRB06KT P6SM SCT030 BKN100
     FM291700 VRB12KT P6SM VCTS SCT022CB BKN040 BKN090
     FM292200 06006KT P6SM SCT025 SCT100
      AMD NOT SKED=



000
FTUS42 TJSJ 282344
TAFNCM
TAF
TNCM 282344Z 2900/2924 12008KT P6SM FEW019
     FM291330 13012KT P6SM FEW020 SCT050
     FM292300 11008KT P6SM FEW020 SCT100=



000
FTUS42 TJSJ 282344
TAFISX
TAF
TISX 282344Z 2900/2924 11005KT P6SM SCT030 SCT100
     FM291330 13012KT P6SM SCT025 BKN050
     FM292300 11006KT P6SM FEW025 SCT100=



000
FTUS42 TJSJ 282344
TAFJPS
TAF
TJPS 282344Z 2900/2924 07005KT P6SM BKN090
     FM291330 15010KT P6SM FEW025 BKN060
     FM292330 10007KT P6SM FEW030 SCT060
      AMD NOT SKED TIL 290300=



000
FTUS42 TJSJ 282344
TAFIST
TAF
TIST 282344Z 2900/2924 12009KT P6SM SCT100
     FM291330 13010KT P6SM SCT025 BKN050
     FM292300 09008KT P6SM FEW025 SCT100=



000
FTUS42 TJSJ 282344
TAFJMZ
TAF
TJMZ 282344Z 2900/2924 00000KT P6SM BKN060
     FM291330 VRB06KT P6SM SCT030 BKN100
     FM291700 VRB12KT P6SM VCTS SCT022CB BKN040 BKN090
     FM292200 06006KT P6SM SCT025 SCT100
      AMD NOT SKED=



000
FTUS42 TJSJ 282344
TAFISX
TAF
TISX 282344Z 2900/2924 11005KT P6SM SCT030 SCT100
     FM291330 13012KT P6SM SCT025 BKN050
     FM292300 11006KT P6SM FEW025 SCT100=



000
FTUS42 TJSJ 282344
TAFNCM
TAF
TNCM 282344Z 2900/2924 12008KT P6SM FEW019
     FM291330 13012KT P6SM FEW020 SCT050
     FM292300 11008KT P6SM FEW020 SCT100=



000
FTUS42 TJSJ 282236 AAC
TAFJBQ
TAF AMD
TJBQ 282236Z 2823/2918 01007KT P6SM VCTS BKN025CB BKN040
     FM282330 VRB06KT P6SM SCT022 BKN060
     FM291330 06012KT P6SM FEW030 SCT060=



000
FTUS42 TJSJ 282132 CCA
TAFJBQ
TAF COR
TJBQ 282132Z 2821/2918 03010KT P6SM VCTS SCT025CB BKN040 BKN090
      TEMPO 2821/2822 VRB15G30KT 1SM +TSRA BKN010 OVC015CB
     FM282330 11008KT P6SM BKN060
     FM291330 06012KT P6SM FEW030 SCT060=



000
FTUS42 TJSJ 282121 AAB
TAFJBQ
TAF AMD
TJBQ 282121Z 2821/2918 03010KT P6SM VCTS SCT025CB BKN040 BKN090
      TEMPO 2821/2822 1SM +TSRA BKN025CB
     FM282330 11008KT P6SM BKN060
     FM291330 06012KT P6SM FEW030 SCT060=



000
FTUS42 TJSJ 282010 AAA
TAFJBQ
TAF AMD
TJBQ 282010Z 2820/2918 03010KT P6SM VCTS SCT025CB BKN040 BKN090
      TEMPO 2820/2822 5SM TSRA BKN022CB OVC040
     FM282330 11008KT P6SM BKN060
     FM291330 06012KT P6SM FEW030 SCT060=



000
FTUS42 TJSJ 282000 AAA
TAFJMZ
TAF AMD
TJMZ 282000Z 2820/2918 VRB10KT P6SM VCTS BKN030CB
      TEMPO 2820/2822 3SM TSRA BKN025CB
     FM282330 00000KT P6SM BKN060
     FM291630 25010KT P6SM VCSH BKN030=



000
FTUS42 TJSJ 281757 CCA
TAFISX
TAF COR
TISX 281757Z 2818/2918 11013G20KT P6SM VCSH FEW015 BKN030 BKN090
     FM282330 08008KT P6SM SCT020
     FM291330 11012KT P6SM SCT025 SCT050=



000
FTUS42 TJSJ 281757 CCA
TAFISX
TAF COR
TISX 281757Z 2818/2918 11013G20KT P6SM VCSH FEW015 BKN030 BKN090
     FM282330 08008KT P6SM SCT020
     FM291330 11012KT P6SM SCT025 SCT050=



000
FTUS42 TJSJ 281733
TAFISX
TAF
TISX 281733Z 2818/2918 11013G20KT P6SM VCSH FEW025 SCT040 BKN090
     FM282330 08008KT P6SM SCT020
     FM291330 11012KT P6SM SCT025 SCT050=



000
FTUS42 TJSJ 281733
TAFJBQ
TAF
TJBQ 281733Z 2818/2918 03010KT P6SM VCTS SCT025CB BKN040 BKN090
     FM282330 11008KT P6SM BKN060
     FM291330 06012KT P6SM FEW030 SCT060=



000
FTUS42 TJSJ 281733
TAFJMZ
TAF
TJMZ 281733Z 2818/2918 VRB10KT P6SM VCTS BKN030CB
     FM282330 00000KT P6SM BKN060
     FM291630 25010KT P6SM VCSH BKN030=



000
FTUS42 TJSJ 281733
TAFKPK
TAF
TKPK 281733Z 2818/2918 09015KT P6SM FEW020 SCT040 BKN090
     FM282330 09008KT P6SM SCT018
     FM291330 09015KT P6SM FEW020 SCT050=



000
FTUS42 TJSJ 281733
TAFJSJ
TAF
TJSJ 281733Z 2818/2918 15010KT P6SM VCSH SCT025 BKN050 BKN090
     FM282330 11008KT P6SM BKN060
     FM291330 07012G18KT P6SM SCT025 SCT050=



000
FTUS42 TJSJ 281733
TAFJPS
TAF
TJPS 281733Z 2818/2918 15010G18KT P6SM FEW025 SCT050 BKN090
     FM282330 05005KT P6SM BKN060
     FM291330 15010KT P6SM FEW025 SCT060=



000
FTUS42 TJSJ 281733
TAFNCM
TAF
TNCM 281733Z 2818/2918 12012KT P6SM FEW020 SCT040 BKN090
     FM282330 10008KT P6SM SCT018
     FM291330 12012KT P6SM FEW020 SCT050=



000
FTUS42 TJSJ 281733
TAFIST
TAF
TIST 281733Z 2818/2918 11015G20KT P6SM FEW025 SCT040 BKN090
     FM282330 08008KT P6SM SCT020
     FM291330 12012KT P6SM SCT025 SCT050=



000
FTUS42 TJSJ 281556 AAA
TAFIST
TAF AMD
TIST 281556Z 2816/2912 11012KT P6SM VCTS SCT020CB BKN040 OVC060
      TEMPO 2816/2818 4SM SHRA SCT015 BKN030
     FM282330 10008KT P6SM SCT025=



000
FTUS42 TJSJ 281438 AAB
TAFISX
TAF AMD
TISX 281438Z 2815/2912 11012KT P6SM -RA VCTS SCT020CB BKN040
     FM282330 11008KT P6SM SCT020=



000
FTUS42 TJSJ 281319 AAA
TAFISX
TAF AMD
TISX 281319Z 2813/2912 11012KT P6SM VCTS BKN020CB BKN040 BKN060
     FM281500 11010KT P6SM VCSH SCT025 SCT040
     FM282330 11008KT P6SM SCT020=



000
FTUS42 TJSJ 281319 AAA
TAFISX
TAF AMD
TISX 281319Z 2813/2912 11012KT P6SM VCTS BKN020CB BKN040 BKN060
     FM281500 11010KT P6SM VCSH SCT025 SCT040
     FM282330 11008KT P6SM SCT020=



000
FTUS42 TJSJ 281140
TAFJBQ
TAF
TJBQ 281140Z 2812/2912 00000KT P6SM BKN090
     FM281330 08007KT P6SM FEW030 BKN090
     FM281630 06012KT P6SM VCTS SCT025CB BKN040
     FM282330 09005KT P6SM SCT025=



000
FTUS42 TJSJ 281140
TAFJSJ
TAF
TJSJ 281140Z 2812/2912 11008KT P6SM SCT020 SCT040 BKN090
     FM281330 07012G18KT P6SM SCT025 BKN050 BKN090
     FM281630 VRB12KT P6SM VCTS SCT020CB BKN040 BKN090
     FM282330 11007KT P6SM SCT025=



000
FTUS42 TJSJ 281140
TAFJMZ
TAF
TJMZ 281140Z 2812/2912 00000KT P6SM BKN090
     FM281630 25010KT P6SM VCSH BKN030
     FM282330 00000KT P6SM SCT025 BKN090=



000
FTUS42 TJSJ 281140
TAFIST
TAF
TIST 281140Z 2812/2912 09010KT P6SM -RA SCT020 BKN040 BKN060
     FM281430 12012KT P6SM SCT020 BKN050
     FM282330 10008KT P6SM SCT025=



000
FTUS42 TJSJ 281140
TAFJPS
TAF
TJPS 281140Z 2812/2912 VRB06KT P6SM BKN090
     FM281630 15010KT P6SM VCTS SCT025CB BKN040 BKN090
     FM282330 05005KT P6SM SCT025
      AMD NOT SKED 2812/2903=



000
FTUS42 TJSJ 281140
TAFISX
TAF
TISX 281140Z 2812/2912 12012KT P6SM VCTS SCT020CB SCT040 BKN060
     FM282330 11008KT P6SM SCT025=



000
FTUS42 TJSJ 281140
TAFKPK
TAF
TKPK 281140Z 2812/2912 08010KT P6SM SCT018 SCT040
     FM281330 09012KT P6SM FEW020 SCT050
     FM282330 08010KT P6SM SCT018=



000
FTUS42 TJSJ 281140
TAFNCM
TAF
TNCM 281140Z 2812/2912 11010KT P6SM SCT018 SCT040
     FM281330 12012KT P6SM FEW020 SCT050
     FM282330 11010KT P6SM SCT018=



000
FTUS42 TJSJ 281140
TAFJPS
TAF
TJPS 281140Z 2812/2912 VRB06KT P6SM BKN090
     FM281630 15010KT P6SM VCTS SCT025CB BKN040 BKN090
     FM282330 05005KT P6SM SCT025
      AMD NOT SKED 2812/2903=



000
FTUS42 TJSJ 281140
TAFISX
TAF
TISX 281140Z 2812/2912 12012KT P6SM VCTS SCT020CB SCT040 BKN060
     FM282330 11008KT P6SM SCT025=



000
FTUS42 TJSJ 281140
TAFNCM
TAF
TNCM 281140Z 2812/2912 11010KT P6SM SCT018 SCT040
     FM281330 12012KT P6SM FEW020 SCT050
     FM282330 11010KT P6SM SCT018=



000
FTUS42 TJSJ 281140
TAFJBQ
TAF
TJBQ 281140Z 2812/2912 00000KT P6SM BKN090
     FM281330 08007KT P6SM FEW030 BKN090
     FM281630 06012KT P6SM VCTS SCT025CB BKN040
     FM282330 09005KT P6SM SCT025=



000
FTUS42 TJSJ 281140
TAFIST
TAF
TIST 281140Z 2812/2912 09010KT P6SM -RA SCT020 BKN040 BKN060
     FM281430 12012KT P6SM SCT020 BKN050
     FM282330 10008KT P6SM SCT025=



000
FTUS42 TJSJ 281140
TAFJSJ
TAF
TJSJ 281140Z 2812/2912 11008KT P6SM SCT020 SCT040 BKN090
     FM281330 07012G18KT P6SM SCT025 BKN050 BKN090
     FM281630 VRB12KT P6SM VCTS SCT020CB BKN040 BKN090
     FM282330 11007KT P6SM SCT025=



000
FTUS42 TJSJ 281140
TAFJMZ
TAF
TJMZ 281140Z 2812/2912 00000KT P6SM BKN090
     FM281630 25010KT P6SM VCSH BKN030
     FM282330 00000KT P6SM SCT025 BKN090=



000
FTUS42 TJSJ 281140
TAFKPK
TAF
TKPK 281140Z 2812/2912 08010KT P6SM SCT018 SCT040
     FM281330 09012KT P6SM FEW020 SCT050
     FM282330 08010KT P6SM SCT018=



000
FTUS42 TJSJ 280717 CCB
TAFJPS
TAF COR
TJPS 280717Z 2806/2906 05005KT P6SM VCSH SCT025 SCT040 BKN090
     FM281500 15012KT P6SM FEW025 BKN050 BKN100
     FM282300 05005KT P6SM SCT025 SCT050
      AMD NOT SKED 2812/2903=



000
FTUS42 TJSJ 280549 CCA
TAFJPS
TAF COR
TJPS 280549Z 2806/2906 05005KT P6SM VCSH FEW025 SCT040 BKN090
     FM281500 15012KT P6SM FEW025 BKN050 BKN100
     FM282300 05005KT P6SM FEW025 SCT050
      AMD NOT SKED 2812/2903=



000
FTUS42 TJSJ 280549 CCA
TAFJPS
TAF COR
TJPS 280549Z 2806/2906 05005KT P6SM VCSH FEW025 SCT040 BKN090
     FM281500 15012KT P6SM FEW025 BKN050 BKN100
     FM282300 05005KT P6SM FEW025 SCT050
      AMD NOT SKED 2812/2903=



000
FTUS42 TJSJ 280520
TAFNCM
TAF
TNCM 280520Z 2806/2906 10007KT P6SM VCSH SCT018 BKN035
      TEMPO 2806/2810 BKN018
     FM281430 12012KT P6SM FEW022 SCT050
     FM282300 10008KT P6SM VCSH FEW019 SCT040=



000
FTUS42 TJSJ 280520
TAFIST
TAF
TIST 280520Z 2806/2906 11011KT P6SM -RA SCT019 SCT035 BKN090
     FM280900 12010KT P6SM VCSH SCT020 BKN040
     FM281400 14012KT P6SM FEW020 SCT050 BKN120
     FM282300 10008KT P6SM VCSH FEW022 SCT040=



000
FTUS42 TJSJ 280520
TAFJMZ
TAF
TJMZ 280520Z 2806/2906 00000KT P6SM FEW050 BKN120
     FM281500 25010KT P6SM VCSH SCT025 BKN040
     FM282300 05005KT P6SM FEW025 BKN050 BKN120
      AMD NOT SKED TIL 281100=



000
FTUS42 TJSJ 280520
TAFJBQ
TAF
TJBQ 280520Z 2806/2906 VRB04KT P6SM -RA FEW022 SCT060 BKN090
     FM281400 08007KT P6SM SCT022 SCT060 BKN100
     FM281700 06012KT P6SM VCTS SCT020CB BKN050
     FM282300 09005KT P6SM FEW025 BKN050 BKN120
      AMD NOT SKED TIL 281100=



000
FTUS42 TJSJ 280520
TAFISX
TAF
TISX 280520Z 2806/2906 08010KT P6SM -RA SCT018 BKN035 BKN090
     FM280800 09007KT P6SM VCSH SCT020 BKN040
     FM281400 12012KT P6SM FEW020 SCT050 BKN120
     FM282300 11008KT P6SM VCSH FEW022 SCT040=



000
FTUS42 TJSJ 280520
TAFJSJ
TAF
TJSJ 280520Z 2806/2906 15002KT P6SM VCSH SCT020 SCT060 BKN090
     FM280900 10004KT P6SM -RA SCT020 BKN060 BKN100
     FM281530 07012G18KT P6SM VCSH SCT022 BKN050 BKN120
     FM282330 11007KT P6SM SCT025 SCT060 SCT120=



000
FTUS42 TJSJ 280520
TAFJPS
TAF
TJPS 280520Z 2806/2906 05005KT P6SM FEW025 SCT050
     FM281500 15012KT P6SM FEW025 SCT050 BKN100
     FM282300 05005KT P6SM FEW025 SCT050=



000
FTUS42 TJSJ 280520
TAFKPK
TAF
TKPK 280520Z 2806/2906 05011KT P6SM VCSH SCT018 BKN035
      TEMPO 2806/2810 BKN018
     FM281430 11010KT P6SM FEW022 SCT050
     FM282300 08010KT P6SM VCSH FEW018 SCT035
      AMD NOT SKED TIL 281100=



000
FTUS42 TJSJ 280233 AAB
TAFISX
TAF AMD
TISX 280233Z 2803/2824 08007KT P6SM -RA SCT020 SCT040 BKN100
     FM281200 12010KT P6SM VCSH FEW020 SCT050
     FM282300 08005KT P6SM FEW025 BKN050=



000
FTUS42 TJSJ 280232 CCA
TAFIST
TAF COR
TIST 280232Z 2802/2824 09007KT P6SM -RA SCT020 SCT050 BKN100
     FM281100 13012KT P6SM VCSH FEW018 SCT035
     FM282300 09007KT P6SM VCSH SCT020=



000
FTUS42 TJSJ 280232 CCA
TAFIST
TAF COR
TIST 280232Z 2802/2824 09007KT P6SM -RA SCT020 SCT050 BKN100
     FM281100 13012KT P6SM VCSH FEW018 SCT035
     FM282300 09007KT P6SM VCSH SCT020=



000
FTUS42 TJSJ 280202 AAA
TAFKPK
TAF AMD
TKPK 280202Z 2802/2824 08007KT P6SM VCSH FEW020
     FM281300 11010KT P6SM SCT020
      AMD NOT SKED 2802/2811=



000
FTUS42 TJSJ 280202 AAA
TAFKPK
TAF AMD
TKPK 280202Z 2802/2824 08007KT P6SM VCSH FEW020
     FM281300 11010KT P6SM SCT020
      AMD NOT SKED 2802/2811=



000
FTUS42 TJSJ 280158 AAA
TAFISX
TAF AMD
TISX 280158Z 2802/2824 08007KT P6SM SCT020
     FM281200 12010KT P6SM VCSH FEW020 SCT050
     FM282300 08005KT P6SM FEW025 BKN050=



000
FTUS42 TJSJ 280157 AAB
TAFIST
TAF AMD
TIST 280157Z 2802/2824 09007KT P6SM VCSH SCT020
     FM281100 13012KT P6SM VCSH FEW018 SCT035
     FM282300 09007KT P6SM VCSH SCT020=



000
FTUS42 TJSJ 280156 AAA
TAFJBQ
TAF AMD
TJBQ 280156Z 2802/2824 VRB04KT P6SM SCT022 SCT050
     FM281400 05010KT P6SM FEW020 SCT060 BKN120
     FM281700 VRB10KT P6SM VCTS SCT020CB BKN100
     FM282300 VRB04KT P6SM FEW025 BKN080
      AMD NOT SKED 2802/2811=



000
FTUS42 TJSJ 280154 AAA
TAFJPS
TAF AMD
TJPS 280154Z 2802/2824 05005KT P6SM FEW025 SCT050
     FM281500 15010KT P6SM FEW025 SCT050 BKN100
     FM282300 05005KT P6SM FEW025 SCT050
      AMD NOT SKED TIL 280300=



000
FTUS42 TJSJ 280129 AAA
TAFIST
TAF AMD
TIST 280129Z 2801/2824 09007KT P6SM VCSH SCT020
      TEMPO 2801/2803 -SHRA BKN040
     FM281100 13012KT P6SM VCSH FEW018 SCT035=



000
FTUS42 TJSJ 280119 AAA
TAFNCM
TAF AMD
TNCM 280119Z 2801/2824 10007KT P6SM VCSH FEW020
      TEMPO 2801/2803 BKN017
     FM281200 12010KT P6SM VCSH SCT018 SCT040=



000
FTUS42 TJSJ 280001 CCA
TAFJSJ
TAF COR
TJSJ 280001Z 2800/2824 15008KT P6SM RA VCSH SCT020 SCT060 BKN100
     FM280100 13004KT P6SM SCT020 BKN080
     FM281500 10010G17KT P6SM VCSH SCT028 BKN120
     FM282330 12006KT P6SM SCT040 BKN080=



000
FTUS42 TJSJ 280001 CCA
TAFJSJ
TAF COR
TJSJ 280001Z 2800/2824 15008KT P6SM RA VCSH SCT020 SCT060 BKN100
     FM280100 13004KT P6SM SCT020 BKN080
     FM281500 10010G17KT P6SM VCSH SCT028 BKN120
     FM282330 12006KT P6SM SCT040 BKN080=



000
FTUS42 TJSJ 272340
TAFJMZ
TAF
TJMZ 272340Z 2800/2824 VRB04KT P6SM SCT060 BKN120
     FM281500 25010KT P6SM VCSH SCT025 BKN060
     FM282300 05005KT P6SM FEW025 BKN050
      AMD NOT SKED TIL 281500=



000
FTUS42 TJSJ 272340
TAFIST
TAF
TIST 272340Z 2800/2824 09007KT P6SM VCSH SCT020
     FM281100 13012KT P6SM VCSH FEW018 SCT035=



000
FTUS42 TJSJ 272340
TAFJBQ
TAF
TJBQ 272340Z 2800/2824 12005KT P6SM SCT022 SCT050 BKN100
     FM281300 05011KT P6SM FEW020 SCT060 BKN120
     FM282300 10005KT P6SM FEW025 BKN050
      AMD NOT SKED 2802/2811=



000
FTUS42 TJSJ 272340
TAFJPS
TAF
TJPS 272340Z 2800/2824 05005KT P6SM FEW025 BKN050
     FM281500 16010KT P6SM FEW025 SCT050 SCT120
     FM282300 05005KT P6SM FEW025 BKN050
      AMD NOT SKED TIL 280300=



000
FTUS42 TJSJ 272340
TAFJSJ
TAF
TJSJ 272340Z 2800/2824 15008KT 5SM -TSRA VCTS SCT020CB SCT060
      BKN100
     FM280100 13004KT P6SM SCT020 BKN080
     FM281500 10010G17KT P6SM VCSH SCT028 BKN120
     FM282330 12006KT P6SM SCT040 BKN080=



000
FTUS42 TJSJ 272340
TAFISX
TAF
TISX 272340Z 2800/2824 10007KT P6SM SCT020
     FM281200 12010KT P6SM VCSH FEW020 SCT050
     FM282300 08005KT P6SM FEW025 BKN050=



000
FTUS42 TJSJ 272340
TAFKPK
TAF
TKPK 272340Z 2800/2824 10007KT P6SM VCSH FEW020
      AMD NOT SKED 2802/2811=



000
FTUS42 TJSJ 272340
TAFNCM
TAF
TNCM 272340Z 2800/2824 10007KT P6SM VCSH FEW020
     FM281200 12010KT P6SM VCSH SCT018 SCT040=



000
FTUS42 TJSJ 272201 AAA
TAFJSJ
TAF AMD
TJSJ 272201Z 2722/2818 10010G20KT P6SM VCTS SCT025CB SCT050 BKN080
      TEMPO 2722/2724 VRB10G25KT 2SM TSRA BKN025CB OVC040
     FM280000 11005KT P6SM SCT022 SCT040 BKN100
     FM281500 09010G17KT P6SM VCSH SCT028 SCT050 BKN120=



000
FTUS42 TJSJ 271720
TAFNCM
TAF
TNCM 271720Z 2718/2818 12009KT P6SM VCSH FEW018 SCT040
     FM272300 10007KT P6SM FEW020
     FM281200 13010KT P6SM VCSH SCT018 SCT040=



000
FTUS42 TJSJ 271720
TAFJMZ
TAF
TJMZ 271720Z 2718/2818 25010KT P6SM -SHRA SCT025 BKN060
     FM272230 VRB04KT P6SM BKN060 BKN120
     FM281500 25010KT P6SM VCSH SCT025 BKN060
      AMD NOT SKED 2722/2815=



000
FTUS42 TJSJ 271720
TAFJSJ
TAF
TJSJ 271720Z 2718/2818 09012G18KT P6SM VCTS SCT025CB BKN040 BKN080
      TEMPO 2718/2722 VRB15KT -TSRA BKN030CB OVC045
     FM272330 11005KT P6SM SCT022 SCT040 BKN100
     FM281500 09010G17KT P6SM VCSH SCT028 SCT050 BKN120=



000
FTUS42 TJSJ 271720
TAFIST
TAF
TIST 271720Z 2718/2818 12013KT P6SM VCSH FEW025 SCT050
     FM272300 09007KT P6SM SCT020 SCT050
     FM281100 13012KT P6SM VCSH FEW018 SCT035=



000
FTUS42 TJSJ 271720
TAFJBQ
TAF
TJBQ 271720Z 2718/2818 05006KT P6SM VCTS SCT020CB BKN035 BKN080
      TEMPO 2718/2722 VRB10KT 5SM TSRA BKN022CB OVC040
     FM272300 12005KT P6SM SCT022 SCT050 BKN100
     FM281300 07011KT P6SM FEW020 SCT060 BKN120
      AMD NOT SKED 2802/2811=



000
FTUS42 TJSJ 271720
TAFJPS
TAF
TJPS 271720Z 2718/2818 14010KT P6SM VCSH SCT025 SCT050 SCT120
     FM272200 05005KT P6SM FEW025 BKN050
     FM281500 16010KT P6SM FEW025 SCT050 SCT120
      AMD NOT SKED TIL 280300=



000
FTUS42 TJSJ 271720
TAFISX
TAF
TISX 271720Z 2718/2818 11015KT P6SM VCSH SCT022 SCT050
     FM272300 10007KT P6SM FEW020
     FM281200 12010KT P6SM VCSH FEW020 SCT050=



000
FTUS42 TJSJ 271720
TAFKPK
TAF
TKPK 271720Z 2718/2818 09009KT P6SM VCSH FEW022 SCT040
     FM272300 10007KT P6SM FEW020
     FM281300 09010KT P6SM VCSH FEW018
      AMD NOT SKED 2802/2811=



000
FTUS42 TJSJ 271141
TAFNCM
TAF
TNCM 271141Z 2712/2812 11007KT P6SM FEW018 SCT040
     FM271300 13011KT P6SM VCSH SCT018 SCT040
     FM272100 11011KT P6SM VCSH SCT018 BKN050=



000
FTUS42 TJSJ 271141
TAFJPS
TAF
TJPS 271141Z 2712/2812 07003KT P6SM VCSH SCT025 SCT060 BKN100
      TEMPO 2712/2715 VRB10KT -SHRA BKN030
     FM271500 16010KT P6SM FEW025 SCT050 SCT120
     FM272200 05005KT P6SM SCT025 BKN060=



000
FTUS42 TJSJ 271141
TAFJBQ
TAF
TJBQ 271141Z 2712/2812 11006KT P6SM SCT018 SCT050 OVC100
     FM271400 08011KT P6SM FEW020 SCT060 BKN120
     FM271800 09009KT P6SM VCTS FEW018CB BKN035 BKN080
     FM272300 12003KT P6SM SCT022 SCT050 BKN120=



000
FTUS42 TJSJ 271141
TAFIST
TAF
TIST 271141Z 2712/2812 12010KT P6SM FEW018 FEW028
     FM271300 13010KT P6SM SCT022 SCT050
     FM272300 09007KT P6SM FEW020=



000
FTUS42 TJSJ 271141
TAFISX
TAF
TISX 271141Z 2712/2812 10007KT P6SM FEW020 BKN050
     FM271300 12010KT P6SM SCT022 SCT050
     FM272300 10007KT P6SM FEW020=



000
FTUS42 TJSJ 271141
TAFJSJ
TAF
TJSJ 271141Z 2712/2812 10003KT P6SM VCSH SCT022 BKN050 OVC100
     FM271400 09010KT P6SM SCT028 SCT050 BKN120
     FM271600 10008KT P6SM VCSH SCT025 BKN040 BKN080
     FM272330 11002KT P6SM SCT022 SCT060 BKN120=



000
FTUS42 TJSJ 271141
TAFKPK
TAF
TKPK 271141Z 2712/2812 08005KT P6SM FEW018 SCT060
     FM271300 10009KT P6SM VCSH SCT016 SCT040
     FM272100 09008KT P6SM SCT018 BKN050=



000
FTUS42 TJSJ 271141
TAFJMZ
TAF
TJMZ 271141Z 2712/2812 07003KT P6SM SCT022 BKN040 OVC100
     FM271630 25010KT P6SM VCTS SCT025CB BKN060
     FM272230 VRB04KT P6SM -RA SCT030 BKN060 BKN120
      AMD NOT SKED=



000
FTUS42 TJSJ 270647 CCA
TAFJMZ
TAF COR
TJMZ 270647Z 2706/2806 07003KT P6SM -RA SCT022 BKN040 OVC100
     FM271630 25010KT P6SM VCTS SCT025CB BKN060
     FM272230 VRB04KT P6SM -RA SCT030 BKN060 BKN120
      AMD NOT SKED=



000
FTUS42 TJSJ 270645 CCB
TAFJBQ
TAF COR
TJBQ 270645Z 2706/2806 11006KT P6SM -RA SCT018 BKN035 OVC100
     FM271400 08011KT P6SM FEW020 SCT060 BKN120
     FM271800 09009KT P6SM VCTS FEW018CB BKN035 BKN080
     FM272300 12003KT P6SM SCT022 SCT050 BKN120=



000
FTUS42 TJSJ 270642 CCA
TAFJBQ
TAF COR
TJBQ 270642Z 2706/2806 10006KT P6SM -RA SCT018 BKN035 OVC120
     FM271300 11006KT P6SM FEW020 SCT060 BKN120
     FM271800 11009KT P6SM VCTS SCT015 BKN025CB BKN060=



000
FTUS42 TJSJ 270641 CCA
TAFJPS
TAF COR
TJPS 270641Z 2706/2806 07003KT P6SM VCSH SCT025 SCT060 BKN100
     FM271300 16010KT P6SM FEW025 SCT050 SCT120
     FM272200 05005KT P6SM SCT025 BKN060=



000
FTUS42 TJSJ 270641 CCA
TAFJPS
TAF COR
TJPS 270641Z 2706/2806 07003KT P6SM VCSH SCT025 SCT060 BKN100
     FM271300 16010KT P6SM FEW025 SCT050 SCT120
     FM272200 05005KT P6SM SCT025 BKN060=



000
FTUS42 TJSJ 270539
TAFJPS
TAF
TJPS 270539Z 2706/2806 VRB05KT P6SM SCT060 BKN120
     FM271300 16010KT P6SM FEW025 SCT050
     FM272200 05005KT P6SM FEW025 SCT060=



000
FTUS42 TJSJ 270539
TAFJBQ
TAF
TJBQ 270539Z 2706/2806 10006KT P6SM FEW035 SCT050 OVC120
     FM271300 11006KT P6SM FEW020 SCT060
     FM271800 11009KT P6SM VCTS SCT015 BKN025CB BKN060=



000
FTUS42 TJSJ 270539
TAFJSJ
TAF
TJSJ 270539Z 2706/2806 10003KT P6SM VCSH SCT022 BKN050 OVC100
     FM271400 09010KT P6SM SCT028 SCT050 BKN120
     FM271600 10008KT P6SM VCSH SCT025 BKN040 BKN080
     FM272330 11002KT P6SM SCT022 SCT060 BKN120=



000
FTUS42 TJSJ 270539
TAFJMZ
TAF
TJMZ 270539Z 2706/2806 VRB05KT P6SM SCT060
     FM271630 25010KT P6SM VCTS BKN030CB
     FM272230 VRB04KT P6SM VCSH SCT030 BKN040
      AMD NOT SKED=



000
FTUS42 TJSJ 270539
TAFIST
TAF
TIST 270539Z 2706/2806 12010KT P6SM FEW018 FEW028
     FM271300 13010KT P6SM SCT024 SCT050=



000
FTUS42 TJSJ 270539
TAFKPK
TAF
TKPK 270539Z 2706/2806 08005KT P6SM FEW018 SCT060
     FM271300 09012KT P6SM VCSH SCT016 SCT040
     FM271600 08012KT P6SM VCSH BKN016 BKN035=



000
FTUS42 TJSJ 270539
TAFISX
TAF
TISX 270539Z 2706/2806 10007KT P6SM FEW020
     FM271300 12010KT P6SM FEW024
     FM272300 09007KT P6SM FEW020=



000
FTUS42 TJSJ 270539
TAFNCM
TAF
TNCM 270539Z 2706/2806 11007KT P6SM FEW018 SCT040
     FM271300 12011KT P6SM VCSH SCT018 SCT040
     FM271600 13011KT P6SM -SHRA BKN018 BKN045=



000
FTUS42 TJSJ 270539
TAFJPS
TAF
TJPS 270539Z 2706/2806 VRB05KT P6SM SCT060 BKN120
     FM271300 16010KT P6SM FEW025 SCT050
     FM272200 05005KT P6SM FEW025 SCT060=



000
FTUS42 TJSJ 270539
TAFJMZ
TAF
TJMZ 270539Z 2706/2806 VRB05KT P6SM SCT060
     FM271630 25010KT P6SM VCTS BKN030CB
     FM272230 VRB04KT P6SM VCSH SCT030 BKN040
      AMD NOT SKED=



000
FTUS42 TJSJ 270539
TAFJSJ
TAF
TJSJ 270539Z 2706/2806 10003KT P6SM VCSH SCT022 BKN050 OVC100
     FM271400 09010KT P6SM SCT028 SCT050 BKN120
     FM271600 10008KT P6SM VCSH SCT025 BKN040 BKN080
     FM272330 11002KT P6SM SCT022 SCT060 BKN120=



000
FTUS42 TJSJ 270539
TAFJBQ
TAF
TJBQ 270539Z 2706/2806 10006KT P6SM FEW035 SCT050 OVC120
     FM271300 11006KT P6SM FEW020 SCT060
     FM271800 11009KT P6SM VCTS SCT015 BKN025CB BKN060=



000
FTUS42 TJSJ 270103 AAA
TAFJBQ
TAF AMD
TJBQ 270103Z 2701/2724 10006KT P6SM FEW035 SCT050 OVC120
      TEMPO 2701/2704 -RA SCT025 SCT050
     FM271300 11006KT P6SM FEW020 SCT060
     FM271800 11009KT P6SM VCTS SCT015 BKN025CB BKN060=



000
FTUS42 TJSJ 262343
TAFJPS
TAF
TJPS 262343Z 2700/2724 VRB05KT P6SM SCT060 BKN120
     FM271300 16010KT P6SM FEW025 SCT050
     FM272200 05005KT P6SM FEW025 SCT060=



000
FTUS42 TJSJ 262343
TAFJSJ
TAF
TJSJ 262343Z 2700/2724 VRB03KT P6SM VCSH SCT028 BKN060 OVC100
     FM271300 09010KT P6SM SCT030 SCT050 SCT100
     FM271600 10008KT P6SM VCSH SCT025 SCT040 BKN120=



000
FTUS42 TJSJ 262343
TAFJMZ
TAF
TJMZ 262343Z 2700/2724 VRB05KT P6SM SCT060
     FM271630 25010KT P6SM VCTS BKN030CB
     FM272230 VRB04KT P6SM VCSH SCT030 BKN040
      AMD NOT SKED=



000
FTUS42 TJSJ 262343
TAFKPK
TAF
TKPK 262343Z 2700/2724 08005KT P6SM FEW018 SCT060
     FM271300 09012KT P6SM VCSH SCT016 SCT040
     FM271600 08012KT P6SM VCSH BKN016 BKN035=



000
FTUS42 TJSJ 262343
TAFNCM
TAF
TNCM 262343Z 2700/2724 11007KT P6SM FEW018 SCT040
     FM271300 12011KT P6SM VCSH SCT018 SCT040
     FM271600 13011KT P6SM -SHRA BKN018 BKN045=



000
FTUS42 TJSJ 262343
TAFISX
TAF
TISX 262343Z 2700/2724 10007KT P6SM FEW020
     FM271300 12010KT P6SM FEW024
     FM272300 09007KT P6SM FEW020=



000
FTUS42 TJSJ 262343
TAFJBQ
TAF
TJBQ 262343Z 2700/2724 VRB05KT P6SM VCSH SCT006 BKN024 OVC090
      TEMPO 2700/2702 -SHRA SCT006 BKN012 OVC080
     FM270200 11008KT P6SM SCT025 BKN060
     FM271300 11006KT P6SM FEW020 SCT060
     FM271800 11009KT P6SM VCTS SCT015 BKN025CB BKN060=



000
FTUS42 TJSJ 262343
TAFIST
TAF
TIST 262343Z 2700/2724 12010KT P6SM FEW018 FEW028
     FM271300 13010KT P6SM SCT024 SCT050=



000
FTUS42 TJSJ 262202 AAB
TAFJBQ
TAF AMD
TJBQ 262202Z 2622/2718 VRB05KT P6SM VCSH SCT010 SCT020 BKN040
      TEMPO 2622/2701 -SHRA SCT006 BKN012 OVC080
     FM270100 11008KT P6SM SCT025 BKN060
     FM271300 07010KT P6SM FEW020 SCT060=



    US Dept of Commerce
    National Oceanic and Atmospheric Administration
    National Weather Service
    1325 East West Highway
    Silver Spring, MD 20910
    Page Author: NWS Internet Services Team
Disclaimer
Information Quality
Credits
Glossary
Privacy Policy
Freedom of Information Act (FOIA)
About Us
Career Opportunities